KLOU/LOU METAR and TAF weather

Enter ICAO airport designator
Station Type Date Time Source
KLOU METAR 2019/04/25 11:53 UTC NOAA

KLOU 251153Z 00000KT 8SM FEW060 FEW080 16/15 A2984 RMK AO2 RAE08 SLP102 P0000 60008 70048 T01610150 10161 20156 53005


Station Type Date Time Source
KLOU Decoded METAR 2019/04/25 11:53 UTC NOAA

BOWMAN FIELD, KY, United States (KLOU) 38-14N 085-40W 164M
Apr 25, 2019 - 07:53 AM EDT / 2019.04.25 1153 UTC
Wind: Calm:0
Visibility: 8 mile(s):0
Sky conditions: mostly clear
Precipitation last hour: A trace
Temperature: 61.0 F (16.1 C)
Dew Point: 59.0 F (15.0 C)
Relative Humidity: 93%
Pressure (altimeter): 29.84 in. Hg (1010 hPa)
Pressure tendency: 0.01 inches (0.5 hPa) higher than three hours ago
ob: KLOU 251153Z 00000KT 8SM FEW060 FEW080 16/15 A2984 RMK AO2 RAE08 SLP102 P0000 60008 70048 T01610150 10161 20156 53005
cycle: 12

Station Type Date Time Source
KLOU TAF UTC NOAA

Error!

Example: see airport list